Time;durP1;ratioP1;P1;durP2;ratioP2;P2;SDS_P1;SDS_P2;PMS_P1;PMS_P2;Temp;Humidity;BMP_temperature;BMP_pressure;BME280_temperature;BME280_humidity;BME280_pressure;Samples;Min_cycle;Max_cycle;Signal;HPM_P1;HPM_P2
2022/01/13 00:01:41;;;;;;;57.33;6.63;;;;;;;;;;5060061;28;20575;-65
2022/01/13 00:04:10;;;;;;;59.58;7.43;;;;;;;;;;5056148;28;20464;-65
2022/01/13 00:06:44;;;;;;;61.80;7.43;;;;;;;;;;5056308;28;20091;-65
2022/01/13 00:09:10;;;;;;;75.03;7.87;;;;;;;;;;5057407;28;20714;-65
2022/01/13 00:11:37;;;;;;;54.83;8.20;;;;;;;;;;5057185;28;20414;-65
2022/01/13 00:16:56;;;;;;;57.28;6.85;;;;;;;;;;5057357;28;20061;-65
2022/01/13 00:19:49;;;;;;;49.03;6.88;;;;;;;;;;5059864;28;20079;-65
2022/01/13 00:25:00;;;;;;;61.08;8.13;;;;;;;;;;5057614;28;20056;-66
2022/01/13 00:27:29;;;;;;;59.97;7.10;;;;;;;;;;5054878;28;20045;-65
2022/01/13 00:29:57;;;;;;;54.53;7.55;;;;;;;;;;5054824;28;20132;-66
2022/01/13 00:32:28;;;;;;;50.47;6.82;;;;;;;;;;5056360;28;20140;-65
2022/01/13 00:34:54;;;;;;;61.35;7.40;;;;;;;;;;5057099;28;20483;-66
2022/01/13 00:37:21;;;;;;;63.88;7.72;;;;;;;;;;5058874;28;20127;-65
2022/01/13 00:39:47;;;;;;;53.97;7.57;;;;;;;;;;5056584;28;20058;-66
2022/01/13 00:42:14;;;;;;;52.28;6.88;;;;;;;;;;5056085;28;20106;-66
2022/01/13 00:44:43;;;;;;;48.72;6.43;;;;;;;;;;5057080;28;20143;-66
2022/01/13 00:47:11;;;;;;;50.50;6.75;;;;;;;;;;5048490;28;20049;-65
2022/01/13 00:49:37;;;;;;;71.10;8.20;;;;;;;;;;5059092;28;20128;-65
2022/01/13 00:52:04;;;;;;;58.53;8.75;;;;;;;;;;5053061;28;20077;-65
2022/01/13 00:54:34;;;;;;;49.10;6.30;;;;;;;;;;5056488;28;20048;-66
2022/01/13 00:57:00;;;;;;;54.00;7.78;;;;;;;;;;5053447;28;20099;-65
2022/01/13 00:59:27;;;;;;;52.53;6.70;;;;;;;;;;5061223;28;20136;-65
2022/01/13 01:02:00;;;;;;;55.35;6.13;;;;;;;;;;5060919;28;20044;-66
2022/01/13 01:04:27;;;;;;;52.33;6.05;;;;;;;;;;5056335;28;20057;-66
2022/01/13 01:06:54;;;;;;;55.80;7.85;;;;;;;;;;5051240;28;20128;-66
2022/01/13 01:09:48;;;;;;;44.47;6.67;;;;;;;;;;5054845;28;20061;-65
2022/01/13 01:12:08;;;;;;;64.05;7.75;;;;;;;;;;5058258;28;20140;-66
2022/01/13 01:14:47;;;;;;;58.00;7.22;;;;;;;;;;5050794;28;20044;-65
2022/01/13 01:17:17;;;;;;;67.88;8.30;;;;;;;;;;5057107;28;20572;-65
2022/01/13 01:19:48;;;;;;;45.30;6.50;;;;;;;;;;5058465;28;20129;-66
2022/01/13 01:22:32;;;;;;;62.05;6.88;;;;;;;;;;5054115;28;20049;-65
2022/01/13 01:25:30;;;;;;;52.35;6.15;;;;;;;;;;5057100;28;20310;-66
2022/01/13 01:27:51;;;;;;;54.38;6.50;;;;;;;;;;5062360;28;20131;-65
2022/01/13 01:30:32;;;;;;;52.80;6.65;;;;;;;;;;5060392;28;20048;-65
2022/01/13 01:32:59;;;;;;;41.83;6.13;;;;;;;;;;5059478;28;20050;-66
2022/01/13 01:35:27;;;;;;;45.22;5.80;;;;;;;;;;5045404;28;20083;-65
2022/01/13 01:37:54;;;;;;;52.72;6.55;;;;;;;;;;5062616;28;20059;-66
2022/01/13 01:40:21;;;;;;;46.53;6.70;;;;;;;;;;5064505;28;20080;-66
2022/01/13 01:42:50;;;;;;;48.53;6.45;;;;;;;;;;5060044;28;20144;-65
2022/01/13 01:45:17;;;;;;;38.43;6.73;;;;;;;;;;5058953;28;20124;-66
2022/01/13 01:47:44;;;;;;;42.90;6.55;;;;;;;;;;5057686;28;20462;-66
2022/01/13 01:50:18;;;;;;;50.47;6.03;;;;;;;;;;5064434;28;20079;-66
2022/01/13 01:52:46;;;;;;;46.72;6.00;;;;;;;;;;5063112;28;20128;-66
2022/01/13 01:55:13;;;;;;;42.70;6.40;;;;;;;;;;5057640;28;20717;-66
2022/01/13 01:57:40;;;;;;;55.03;7.03;;;;;;;;;;5063199;28;20095;-65
2022/01/13 02:00:09;;;;;;;52.88;6.32;;;;;;;;;;5062414;28;20044;-65
2022/01/13 02:02:36;;;;;;;48.78;6.55;;;;;;;;;;5060542;28;20136;-66
2022/01/13 02:05:03;;;;;;;53.83;6.83;;;;;;;;;;5062175;28;20056;-66
2022/01/13 02:07:29;;;;;;;53.83;7.30;;;;;;;;;;5060260;28;20803;-66
2022/01/13 02:09:56;;;;;;;57.05;6.60;;;;;;;;;;5062753;28;20458;-65
2022/01/13 02:12:43;;;;;;;40.47;5.43;;;;;;;;;;5061341;28;20136;-66
2022/01/13 02:15:31;;;;;;;46.67;5.38;;;;;;;;;;5057602;28;20084;-66
2022/01/13 02:17:58;;;;;;;39.40;5.88;;;;;;;;;;5062015;28;20045;-65
2022/01/13 02:21:01;;;;;;;45.38;6.47;;;;;;;;;;5063383;28;20576;-66
2022/01/13 02:23:35;;;;;;;42.42;5.95;;;;;;;;;;5000515;28;21204;-66
2022/01/13 02:26:09;;;;;;;44.30;5.70;;;;;;;;;;5056278;28;20080;-66
2022/01/13 02:28:36;;;;;;;46.92;5.95;;;;;;;;;;5063269;28;20397;-66
2022/01/13 02:31:03;;;;;;;48.75;7.10;;;;;;;;;;5066984;28;20144;-66
2022/01/13 02:33:29;;;;;;;50.15;5.78;;;;;;;;;;5059301;28;20052;-65
2022/01/13 02:35:56;;;;;;;39.83;5.90;;;;;;;;;;5060274;28;20532;-66
2022/01/13 02:38:22;;;;;;;44.05;6.68;;;;;;;;;;5059039;28;20135;-66
2022/01/13 02:40:53;;;;;;;50.83;7.17;;;;;;;;;;5060460;28;20125;-66
2022/01/13 02:43:20;;;;;;;47.92;6.65;;;;;;;;;;5060112;28;20144;-66
2022/01/13 02:46:03;;;;;;;29.02;4.40;;;;;;;;;;5057675;28;20447;-65
2022/01/13 02:48:35;;;;;;;41.50;5.38;;;;;;;;;;5056277;28;20635;-66
2022/01/13 02:51:01;;;;;;;36.53;5.63;;;;;;;;;;5060790;28;20084;-66
2022/01/13 02:53:28;;;;;;;43.22;5.70;;;;;;;;;;5059966;28;20131;-66
2022/01/13 02:56:02;;;;;;;43.20;6.07;;;;;;;;;;5060902;28;20114;-66
2022/01/13 02:58:29;;;;;;;38.17;5.47;;;;;;;;;;5059086;28;20048;-66
2022/01/13 03:00:55;;;;;;;45.90;5.35;;;;;;;;;;5059917;28;20160;-66
2022/01/13 03:03:22;;;;;;;51.83;5.68;;;;;;;;;;5058491;28;20127;-65
2022/01/13 03:05:48;;;;;;;46.88;6.60;;;;;;;;;;5059237;28;20076;-66
2022/01/13 03:08:15;;;;;;;48.10;5.68;;;;;;;;;;5057907;28;20128;-66
2022/01/13 03:10:42;;;;;;;48.80;6.22;;;;;;;;;;5059598;28;20110;-65
2022/01/13 03:13:08;;;;;;;43.13;6.05;;;;;;;;;;5059712;28;20097;-66
2022/01/13 03:15:35;;;;;;;53.75;7.00;;;;;;;;;;5053561;28;20979;-66
2022/01/13 03:18:02;;;;;;;48.70;7.33;;;;;;;;;;5055279;28;20049;-66
2022/01/13 03:20:28;;;;;;;37.50;4.90;;;;;;;;;;5058726;28;20141;-65
2022/01/13 03:22:56;;;;;;;54.05;6.15;;;;;;;;;;5060074;28;20059;-65
2022/01/13 03:25:23;;;;;;;51.72;6.63;;;;;;;;;;5060686;28;20051;-65
2022/01/13 03:27:57;;;;;;;50.75;7.22;;;;;;;;;;5058772;28;20140;-66
2022/01/13 03:30:25;;;;;;;53.03;6.53;;;;;;;;;;5055749;28;20052;-66
2022/01/13 03:32:52;;;;;;;34.67;6.40;;;;;;;;;;5058756;28;20805;-66
2022/01/13 03:35:18;;;;;;;43.13;5.57;;;;;;;;;;5061579;28;20052;-66
2022/01/13 03:37:45;;;;;;;47.30;6.07;;;;;;;;;;5053925;28;20167;-65
2022/01/13 03:40:12;;;;;;;48.35;6.88;;;;;;;;;;5057388;28;20169;-65
2022/01/13 03:42:38;;;;;;;32.38;5.40;;;;;;;;;;5059760;28;20148;-66
2022/01/13 03:45:06;;;;;;;42.85;5.78;;;;;;;;;;5059340;28;20562;-66
2022/01/13 03:47:33;;;;;;;46.72;5.90;;;;;;;;;;5060472;28;20136;-66
2022/01/13 03:49:59;;;;;;;47.08;6.78;;;;;;;;;;5057463;28;20121;-66
2022/01/13 03:52:49;;;;;;;46.78;5.95;;;;;;;;;;5061439;28;20086;-66
2022/01/13 03:55:51;;;;;;;44.13;5.28;;;;;;;;;;5059035;28;20110;-66
2022/01/13 03:58:36;;;;;;;51.10;6.68;;;;;;;;;;4986040;28;20054;-66
2022/01/13 04:01:14;;;;;;;36.80;6.18;;;;;;;;;;5052451;28;20141;-66
2022/01/13 04:03:42;;;;;;;41.75;6.53;;;;;;;;;;5060184;28;20101;-66
2022/01/13 04:06:11;;;;;;;40.53;5.63;;;;;;;;;;5053082;28;20143;-65
2022/01/13 04:08:38;;;;;;;48.22;6.50;;;;;;;;;;5062370;28;20053;-66
2022/01/13 04:11:32;;;;;;;51.20;6.75;;;;;;;;;;5063182;28;20132;-66
2022/01/13 04:14:02;;;;;;;48.95;6.28;;;;;;;;;;5054346;28;20496;-66
2022/01/13 04:16:33;;;;;;;43.25;6.10;;;;;;;;;;5051920;28;20468;-65
2022/01/13 04:19:04;;;;;;;39.72;6.38;;;;;;;;;;5058981;28;20059;-65
2022/01/13 04:21:35;;;;;;;48.85;5.88;;;;;;;;;;5062803;28;20055;-66
2022/01/13 04:24:05;;;;;;;39.13;5.28;;;;;;;;;;5058551;28;20135;-66
2022/01/13 04:26:34;;;;;;;59.97;6.43;;;;;;;;;;5057868;28;20132;-66
2022/01/13 04:29:18;;;;;;;49.08;6.05;;;;;;;;;;5058967;28;20473;-66
2022/01/13 04:31:49;;;;;;;50.22;6.30;;;;;;;;;;5061481;28;20147;-66
2022/01/13 04:34:15;;;;;;;66.13;6.72;;;;;;;;;;5058899;28;20135;-66
2022/01/13 04:36:42;;;;;;;51.37;6.47;;;;;;;;;;5056660;28;20049;-66
2022/01/13 04:39:15;;;;;;;56.40;6.22;;;;;;;;;;5057013;28;20131;-66
2022/01/13 04:41:44;;;;;;;40.03;5.70;;;;;;;;;;5057689;28;20124;-66
2022/01/13 04:44:16;;;;;;;35.13;5.53;;;;;;;;;;5058773;28;20129;-65
2022/01/13 04:46:44;;;;;;;41.78;6.53;;;;;;;;;;5055707;28;20145;-65
2022/01/13 04:49:10;;;;;;;37.90;6.13;;;;;;;;;;5056889;28;20051;-66
2022/01/13 04:51:38;;;;;;;45.50;5.90;;;;;;;;;;5060071;28;20099;-66
2022/01/13 04:54:07;;;;;;;58.75;7.28;;;;;;;;;;5060763;28;20135;-66
2022/01/13 04:57:03;;;;;;;47.97;6.45;;;;;;;;;;5058925;28;20584;-65
2022/01/13 04:59:31;;;;;;;45.03;5.88;;;;;;;;;;5059146;28;20072;-65
2022/01/13 05:02:00;;;;;;;51.95;7.75;;;;;;;;;;5063160;28;20076;-66
2022/01/13 05:04:26;;;;;;;57.53;6.47;;;;;;;;;;5062190;28;20045;-65
2022/01/13 05:06:54;;;;;;;31.65;5.50;;;;;;;;;;5066332;28;20090;-65
2022/01/13 05:09:20;;;;;;;35.47;4.43;;;;;;;;;;5040909;28;20072;-65
2022/01/13 05:11:46;;;;;;;51.50;6.05;;;;;;;;;;5067743;28;20079;-66
2022/01/13 05:14:20;;;;;;;47.92;7.05;;;;;;;;;;5064033;28;20140;-66
2022/01/13 05:16:57;;;;;;;38.72;6.32;;;;;;;;;;5057513;28;20475;-66
2022/01/13 05:19:39;;;;;;;51.33;5.85;;;;;;;;;;5062002;28;20083;-66
2022/01/13 05:22:15;;;;;;;40.97;5.80;;;;;;;;;;5061747;28;20152;-65
2022/01/13 05:24:44;;;;;;;56.10;7.38;;;;;;;;;;5062021;28;20098;-65
2022/01/13 05:27:11;;;;;;;44.13;6.22;;;;;;;;;;5061105;28;20045;-66
2022/01/13 05:29:37;;;;;;;43.25;6.28;;;;;;;;;;5061130;28;20163;-66
2022/01/13 05:32:04;;;;;;;45.73;6.30;;;;;;;;;;5059740;28;20132;-66
2022/01/13 05:34:30;;;;;;;39.90;5.85;;;;;;;;;;5061108;28;21018;-66
2022/01/13 05:37:12;;;;;;;44.80;6.00;;;;;;;;;;5057082;28;20479;-65
2022/01/13 05:39:45;;;;;;;41.08;5.35;;;;;;;;;;5058798;28;20075;-65
2022/01/13 05:42:12;;;;;;;46.42;6.45;;;;;;;;;;5058888;28;20044;-65
2022/01/13 05:44:39;;;;;;;39.78;4.82;;;;;;;;;;5062695;28;20495;-65
2022/01/13 05:47:07;;;;;;;35.78;4.88;;;;;;;;;;5058904;28;20135;-65
2022/01/13 05:49:33;;;;;;;51.95;7.18;;;;;;;;;;5059395;28;20041;-65
2022/01/13 05:52:00;;;;;;;35.97;4.97;;;;;;;;;;5058327;28;20123;-65
2022/01/13 05:54:26;;;;;;;47.70;6.37;;;;;;;;;;5058986;28;20503;-65
2022/01/13 05:56:52;;;;;;;35.85;4.53;;;;;;;;;;5060626;28;20131;-66
2022/01/13 05:59:21;;;;;;;45.70;5.25;;;;;;;;;;5061342;28;20610;-65
2022/01/13 06:01:48;;;;;;;41.75;7.45;;;;;;;;;;5062784;28;20135;-65
2022/01/13 06:04:15;;;;;;;;;;;;;;;;;;5062663;28;20056;-66
2022/01/13 06:06:41;;;;;;;43.47;5.57;;;;;;;;;;5060616;28;20007;-65
2022/01/13 06:09:08;;;;;;;39.30;4.90;;;;;;;;;;5056268;28;20051;-66
2022/01/13 06:11:40;;;;;;;49.70;5.75;;;;;;;;;;5060412;28;20081;-66
2022/01/13 06:14:07;;;;;;;34.67;5.60;;;;;;;;;;5059491;28;20493;-65
2022/01/13 06:16:40;;;;;;;49.17;5.22;;;;;;;;;;5059712;28;20072;-65
2022/01/13 06:19:06;;;;;;;33.92;5.00;;;;;;;;;;5059623;28;20084;-65
2022/01/13 06:21:32;;;;;;;47.47;6.90;;;;;;;;;;5058347;28;20052;-65
2022/01/13 06:24:00;;;;;;;50.13;6.50;;;;;;;;;;5059615;28;20129;-66
2022/01/13 06:26:27;;;;;;;37.00;5.57;;;;;;;;;;5058001;28;20049;-65
2022/01/13 06:28:53;;;;;;;51.87;6.30;;;;;;;;;;5061160;28;20087;-65
2022/01/13 06:31:20;;;;;;;55.97;6.78;;;;;;;;;;5062857;28;20128;-65
2022/01/13 06:33:47;;;;;;;36.50;5.32;;;;;;;;;;5055761;28;20136;-65
2022/01/13 06:36:13;;;;;;;56.50;6.93;;;;;;;;;;5056027;28;20128;-65
2022/01/13 06:38:41;;;;;;;49.70;5.72;;;;;;;;;;5061558;28;20584;-65
2022/01/13 06:41:08;;;;;;;44.67;6.80;;;;;;;;;;5058907;28;20135;-66
2022/01/13 06:43:35;;;;;;;40.47;5.90;;;;;;;;;;5057530;28;20139;-65
2022/01/13 06:46:02;;;;;;;58.85;7.00;;;;;;;;;;5058126;28;20045;-66
2022/01/13 06:48:28;;;;;;;52.88;6.45;;;;;;;;;;5057592;28;20053;-65
2022/01/13 06:50:55;;;;;;;38.25;7.72;;;;;;;;;;5058090;28;20055;-65
2022/01/13 06:53:22;;;;;;;;;;;;;;;;;;5059930;28;20508;-66
2022/01/13 06:55:49;;;;;;;51.00;7.03;;;;;;;;;;5060193;28;19975;-65
2022/01/13 06:58:15;;;;;;;46.25;6.25;;;;;;;;;;5061826;28;20063;-65
2022/01/13 07:00:49;;;;;;;56.92;6.93;;;;;;;;;;5038439;28;20080;-66
2022/01/13 07:03:15;;;;;;;46.85;6.85;;;;;;;;;;5059074;28;20095;-66
2022/01/13 07:05:41;;;;;;;50.65;6.43;;;;;;;;;;5062702;28;20143;-66
2022/01/13 07:08:14;;;;;;;42.40;5.78;;;;;;;;;;5059400;28;20156;-65
2022/01/13 07:10:41;;;;;;;66.82;7.53;;;;;;;;;;5056251;28;20497;-65
2022/01/13 07:13:07;;;;;;;51.70;6.10;;;;;;;;;;5059312;28;20129;-65
2022/01/13 07:15:43;;;;;;;51.33;7.25;;;;;;;;;;5038926;28;20045;-65
2022/01/13 07:18:10;;;;;;;43.67;6.60;;;;;;;;;;5054883;28;20136;-66
2022/01/13 07:20:37;;;;;;;48.67;6.30;;;;;;;;;;5058669;28;20131;-65
2022/01/13 07:23:11;;;;;;;48.78;5.65;;;;;;;;;;5059652;28;20684;-65
2022/01/13 07:25:37;;;;;;;54.30;8.67;;;;;;;;;;5059785;28;20131;-65
2022/01/13 07:28:05;;;;;;;60.10;7.53;;;;;;;;;;5065084;28;20729;-65
2022/01/13 07:30:34;;;;;;;53.10;7.20;;;;;;;;;;5062432;28;20686;-66
2022/01/13 07:33:01;;;;;;;61.05;5.60;;;;;;;;;;5057036;28;20527;-65
2022/01/13 07:35:27;;;;;;;55.83;7.63;;;;;;;;;;5061612;28;20140;-65
2022/01/13 07:38:01;;;;;;;47.75;6.25;;;;;;;;;;5057315;28;20076;-66
2022/01/13 07:40:27;;;;;;;36.92;5.10;;;;;;;;;;5055520;28;20136;-65
2022/01/13 07:42:54;;;;;;;57.38;7.20;;;;;;;;;;5059215;28;20088;-66
2022/01/13 07:45:21;;;;;;;46.10;5.90;;;;;;;;;;5062027;28;20048;-65
2022/01/13 07:47:47;;;;;;;44.10;7.05;;;;;;;;;;5057410;28;20545;-66
2022/01/13 07:50:14;;;;;;;47.28;5.82;;;;;;;;;;5060303;28;20535;-66
2022/01/13 07:52:41;;;;;;;;;;;;;;;;;;5061708;28;20128;-66
2022/01/13 07:55:08;;;;;;;45.08;5.78;;;;;;;;;;5056195;28;19970;-66
2022/01/13 07:57:34;;;;;;;52.63;6.20;;;;;;;;;;5057998;28;20879;-66
2022/01/13 08:00:09;;;;;;;37.17;5.32;;;;;;;;;;5062005;28;20088;-65
2022/01/13 08:02:36;;;;;;;39.58;5.53;;;;;;;;;;5040930;28;20128;-65
2022/01/13 08:05:03;;;;;;;42.63;6.05;;;;;;;;;;5052968;28;20076;-66
2022/01/13 08:07:31;;;;;;;42.40;5.22;;;;;;;;;;5058731;28;20517;-65
2022/01/13 08:09:58;;;;;;;55.05;7.93;;;;;;;;;;5060575;28;20385;-66
2022/01/13 08:12:25;;;;;;;34.47;4.32;;;;;;;;;;5059331;28;20159;-66
2022/01/13 08:14:53;;;;;;;53.50;5.97;;;;;;;;;;5058709;28;20087;-66
2022/01/13 08:20:08;;;;;;;60.40;6.60;;;;;;;;;;5055991;28;20132;-66
2022/01/13 08:22:34;;;;;;;34.60;5.50;;;;;;;;;;5057020;28;20083;-66
2022/01/13 08:25:06;;;;;;;37.58;5.78;;;;;;;;;;5058878;28;20740;-65
2022/01/13 08:27:33;;;;;;;36.67;6.10;;;;;;;;;;5061278;28;20076;-65
2022/01/13 08:29:59;;;;;;;51.38;6.13;;;;;;;;;;5055728;28;20330;-66
2022/01/13 08:32:26;;;;;;;40.28;5.63;;;;;;;;;;5055054;28;20048;-66
2022/01/13 08:34:54;;;;;;;30.00;5.32;;;;;;;;;;5058629;28;20155;-66
2022/01/13 08:37:21;;;;;;;50.55;6.47;;;;;;;;;;5060065;28;20568;-66
2022/01/13 08:39:48;;;;;;;39.92;6.35;;;;;;;;;;5057141;28;20472;-66
2022/01/13 08:42:16;;;;;;;39.10;6.93;;;;;;;;;;5061135;28;20049;-66
2022/01/13 08:44:42;;;;;;;45.72;5.43;;;;;;;;;;5056225;28;20080;-65
2022/01/13 08:47:09;;;;;;;44.93;6.33;;;;;;;;;;5053414;28;20052;-65
2022/01/13 08:49:37;;;;;;;52.78;6.80;;;;;;;;;;5056005;28;20295;-65
2022/01/13 08:52:04;;;;;;;36.05;5.60;;;;;;;;;;5057004;28;20141;-66
2022/01/13 08:54:30;;;;;;;44.47;6.70;;;;;;;;;;5060705;28;20568;-66
2022/01/13 08:56:57;;;;;;;;;;;;;;;;;;5058596;28;20044;-66
2022/01/13 08:59:24;;;;;;;49.08;4.90;;;;;;;;;;5057700;28;19964;-66
2022/01/13 09:01:51;;;;;;;40.70;5.90;;;;;;;;;;5056775;28;20048;-65
2022/01/13 09:04:25;;;;;;;39.45;5.55;;;;;;;;;;5057159;28;20086;-66
2022/01/13 09:06:51;;;;;;;44.17;4.70;;;;;;;;;;5055450;28;20545;-66
2022/01/13 09:09:18;;;;;;;36.92;5.00;;;;;;;;;;5060213;28;20487;-66
2022/01/13 09:11:45;;;;;;;37.47;4.87;;;;;;;;;;5060418;28;20079;-66
2022/01/13 09:14:11;;;;;;;41.83;4.07;;;;;;;;;;5060083;28;20136;-66
2022/01/13 09:16:47;;;;;;;38.00;7.80;;;;;;;;;;5055406;28;20292;-66
2022/01/13 09:19:14;;;;;;;47.83;5.70;;;;;;;;;;5055517;28;20386;-65
2022/01/13 09:21:42;;;;;;;44.88;4.90;;;;;;;;;;5053231;28;20137;-65
2022/01/13 09:24:10;;;;;;;34.80;5.82;;;;;;;;;;5057745;28;20132;-66
2022/01/13 09:26:37;;;;;;;38.22;5.53;;;;;;;;;;5056034;28;20084;-66
2022/01/13 09:29:05;;;;;;;39.85;5.57;;;;;;;;;;5057877;28;20083;-65
2022/01/13 09:31:32;;;;;;;31.38;5.35;;;;;;;;;;5056273;28;20064;-66
2022/01/13 09:34:07;;;;;;;37.38;6.07;;;;;;;;;;5057971;28;20049;-66
2022/01/13 09:36:34;;;;;;;32.40;6.00;;;;;;;;;;5055274;28;20127;-66
2022/01/13 09:39:02;;;;;;;37.05;5.43;;;;;;;;;;5057170;28;20081;-65
2022/01/13 09:41:32;;;;;;;35.50;5.95;;;;;;;;;;5059892;28;20053;-66
2022/01/13 09:44:01;;;;;;;33.15;5.10;;;;;;;;;;5054820;28;20128;-66
2022/01/13 09:46:27;;;;;;;29.90;4.57;;;;;;;;;;5054992;28;20472;-66
2022/01/13 09:48:55;;;;;;;36.97;5.78;;;;;;;;;;5061480;28;20092;-66
2022/01/13 09:51:25;;;;;;;33.15;4.82;;;;;;;;;;5062346;28;20087;-66
2022/01/13 09:53:51;;;;;;;38.72;5.00;;;;;;;;;;5058611;28;20045;-66
2022/01/13 09:56:20;;;;;;;27.98;4.85;;;;;;;;;;5037559;28;20133;-65
2022/01/13 09:58:47;;;;;;;31.20;4.45;;;;;;;;;;5041685;28;20469;-66
2022/01/13 10:01:14;;;;;;;35.00;4.40;;;;;;;;;;5058720;28;20076;-65
2022/01/13 10:03:47;;;;;;;32.70;4.63;;;;;;;;;;5057793;28;20053;-65
2022/01/13 10:06:15;;;;;;;25.55;4.75;;;;;;;;;;5062639;28;20084;-66
2022/01/13 10:08:46;;;;;;;25.17;4.80;;;;;;;;;;5059408;28;20087;-66
2022/01/13 10:11:39;;;;;;;39.20;4.82;;;;;;;;;;5040061;28;20577;-66
2022/01/13 10:16:56;;;;;;;29.63;4.85;;;;;;;;;;5059087;28;20120;-66
2022/01/13 10:19:34;;;;;;;37.85;5.20;;;;;;;;;;5058497;28;20080;-66
2022/01/13 10:22:11;;;;;;;31.23;4.30;;;;;;;;;;5060321;28;20128;-65
2022/01/13 10:24:38;;;;;;;30.25;4.40;;;;;;;;;;5061108;28;20075;-66
2022/01/13 10:27:07;;;;;;;35.38;6.05;;;;;;;;;;5060466;28;20501;-66
2022/01/13 10:29:36;;;;;;;41.33;5.20;;;;;;;;;;5063346;28;20083;-66
2022/01/13 10:32:03;;;;;;;32.33;4.88;;;;;;;;;;5058444;28;20072;-65
2022/01/13 10:34:32;;;;;;;30.13;4.68;;;;;;;;;;5060342;28;20139;-65
2022/01/13 10:37:06;;;;;;;33.75;4.07;;;;;;;;;;5055364;28;20144;-66
2022/01/13 10:39:50;;;;;;;34.45;4.55;;;;;;;;;;5059112;28;20143;-65
2022/01/13 10:45:08;;;;;;;26.23;4.10;;;;;;;;;;5061953;28;20056;-66
2022/01/13 10:47:35;;;;;;;39.05;5.03;;;;;;;;;;5057237;28;20136;-66
2022/01/13 10:50:04;;;;;;;33.20;4.60;;;;;;;;;;5060570;28;20132;-66
2022/01/13 10:52:31;;;;;;;28.60;5.20;;;;;;;;;;5056876;28;20479;-65
2022/01/13 10:55:01;;;;;;;31.55;4.68;;;;;;;;;;5061486;28;20091;-65
2022/01/13 10:57:28;;;;;;;28.63;4.32;;;;;;;;;;5056575;28;20114;-65
2022/01/13 10:59:55;;;;;;;32.28;4.63;;;;;;;;;;5062291;28;20432;-65
2022/01/13 11:02:22;;;;;;;30.97;4.03;;;;;;;;;;5060943;28;20049;-65
2022/01/13 11:04:49;;;;;;;24.88;4.72;;;;;;;;;;5061990;28;20307;-65
2022/01/13 11:07:16;;;;;;;33.47;4.90;;;;;;;;;;5055819;28;20124;-65
2022/01/13 11:09:55;;;;;;;27.00;5.63;;;;;;;;;;5058099;28;20477;-65
2022/01/13 11:12:27;;;;;;;21.85;4.45;;;;;;;;;;5060728;28;20132;-65
2022/01/13 11:14:59;;;;;;;26.83;4.88;;;;;;;;;;5059930;28;20131;-65
2022/01/13 11:17:27;;;;;;;26.77;4.80;;;;;;;;;;5040542;28;20095;-65
2022/01/13 11:19:55;;;;;;;30.88;4.53;;;;;;;;;;5063898;28;20139;-65
2022/01/13 11:22:22;;;;;;;26.13;3.22;;;;;;;;;;5057096;28;20168;-65
2022/01/13 11:24:49;;;;;;;19.33;3.87;;;;;;;;;;5057043;28;20088;-65
2022/01/13 11:27:22;;;;;;;23.33;3.45;;;;;;;;;;5060672;28;20106;-65
2022/01/13 11:29:49;;;;;;;26.10;4.28;;;;;;;;;;5054572;28;20461;-65
2022/01/13 11:32:15;;;;;;;24.57;3.73;;;;;;;;;;5062124;28;20131;-65
2022/01/13 11:34:46;;;;;;;29.70;4.53;;;;;;;;;;5061153;28;20385;-65
2022/01/13 11:37:12;;;;;;;;;;;;;;;;;;5058107;28;20516;-65
2022/01/13 11:39:40;;;;;;;23.98;4.30;;;;;;;;;;5060817;28;19921;-65
2022/01/13 11:42:09;;;;;;;27.02;3.90;;;;;;;;;;5059108;28;20444;-65
2022/01/13 11:44:37;;;;;;;20.85;3.63;;;;;;;;;;5059578;28;20087;-65
2022/01/13 11:47:18;;;;;;;27.17;4.70;;;;;;;;;;5056406;28;20470;-65
2022/01/13 11:49:59;;;;;;;20.30;3.72;;;;;;;;;;5060492;28;20144;-65
2022/01/13 11:52:50;;;;;;;28.70;4.10;;;;;;;;;;5061018;28;20057;-65
2022/01/13 11:55:21;;;;;;;24.15;3.83;;;;;;;;;;5054943;28;20488;-65
2022/01/13 11:58:11;;;;;;;32.88;4.60;;;;;;;;;;5057834;28;20063;-65
2022/01/13 12:00:45;;;;;;;30.35;4.90;;;;;;;;;;5060185;28;20079;-65
2022/01/13 12:03:27;;;;;;;38.60;5.18;;;;;;;;;;5058158;28;20049;-65
2022/01/13 12:05:55;;;;;;;30.88;3.80;;;;;;;;;;5059142;28;20480;-65
2022/01/13 12:08:41;;;;;;;25.73;4.78;;;;;;;;;;5062726;28;20076;-67
2022/01/13 12:11:41;;;;;;;35.80;5.65;;;;;;;;;;5057906;28;20076;-65
2022/01/13 12:14:24;;;;;;;28.70;3.80;;;;;;;;;;5054531;28;20072;-65
2022/01/13 12:16:51;;;;;;;30.05;5.25;;;;;;;;;;5058024;28;20072;-65
2022/01/13 12:19:28;;;;;;;28.92;4.28;;;;;;;;;;5056768;28;20076;-65
2022/01/13 12:22:03;;;;;;;33.10;5.10;;;;;;;;;;5053396;28;20072;-65
2022/01/13 12:24:42;;;;;;;24.13;4.07;;;;;;;;;;5056864;28;20083;-65
2022/01/13 12:27:26;;;;;;;28.85;5.13;;;;;;;;;;5057283;28;20132;-65
2022/01/13 12:30:11;;;;;;;37.17;4.90;;;;;;;;;;5056651;28;20083;-65
2022/01/13 12:33:07;;;;;;;28.05;3.78;;;;;;;;;;5056807;28;21898;-65
2022/01/13 12:35:34;;;;;;;30.17;4.40;;;;;;;;;;5061772;28;20144;-65
2022/01/13 12:38:01;;;;;;;26.88;4.38;;;;;;;;;;5060011;28;20170;-65
2022/01/13 12:40:34;;;;;;;33.40;4.03;;;;;;;;;;5054288;28;20067;-65
2022/01/13 12:43:22;;;;;;;29.48;4.53;;;;;;;;;;5056281;28;20137;-65
2022/01/13 12:45:49;;;;;;;43.97;4.70;;;;;;;;;;5060494;28;20048;-65
2022/01/13 12:48:15;;;;;;;34.83;5.22;;;;;;;;;;5060485;28;20080;-65
2022/01/13 12:50:43;;;;;;;38.05;5.20;;;;;;;;;;5062149;28;20048;-65
2022/01/13 12:53:23;;;;;;;27.80;4.57;;;;;;;;;;5054983;28;20408;-65
2022/01/13 12:56:10;;;;;;;35.95;5.53;;;;;;;;;;5060077;28;20546;-65
2022/01/13 12:58:38;;;;;;;34.95;4.55;;;;;;;;;;5055221;28;20098;-65
2022/01/13 13:01:14;;;;;;;40.22;5.80;;;;;;;;;;5062315;28;20083;-65
2022/01/13 13:03:42;;;;;;;34.28;4.38;;;;;;;;;;5056118;28;20503;-65
2022/01/13 13:06:10;;;;;;;30.90;5.40;;;;;;;;;;5059093;28;20289;-65
2022/01/13 13:08:37;;;;;;;30.80;4.85;;;;;;;;;;5059821;28;20143;-65
2022/01/13 13:11:05;;;;;;;36.80;3.92;;;;;;;;;;5057466;28;20596;-65
2022/01/13 13:13:36;;;;;;;33.50;4.20;;;;;;;;;;5058286;28;20505;-65
2022/01/13 13:16:04;;;;;;;37.22;4.95;;;;;;;;;;5060078;28;20152;-65
2022/01/13 13:18:31;;;;;;;32.88;4.50;;;;;;;;;;5059191;28;20102;-65
2022/01/13 13:20:58;;;;;;;35.20;4.80;;;;;;;;;;5053905;28;20132;-65
2022/01/13 13:23:31;;;;;;;36.33;4.88;;;;;;;;;;5058728;28;20945;-65
2022/01/13 13:26:04;;;;;;;28.83;4.20;;;;;;;;;;5061661;28;20044;-65
2022/01/13 13:28:37;;;;;;;26.63;5.10;;;;;;;;;;5063010;28;20051;-65
2022/01/13 13:31:20;;;;;;;21.55;4.05;;;;;;;;;;5061745;28;20132;-65
2022/01/13 13:33:55;;;;;;;21.83;3.38;;;;;;;;;;5057351;28;20610;-65
2022/01/13 13:36:23;;;;;;;20.00;3.30;;;;;;;;;;5061584;28;20947;-65
2022/01/13 13:39:08;;;;;;;29.38;4.72;;;;;;;;;;5061295;28;20136;-66
2022/01/13 13:41:45;;;;;;;46.58;5.38;;;;;;;;;;5063074;28;20072;-65
2022/01/13 13:44:15;;;;;;;33.55;3.75;;;;;;;;;;5057691;28;20511;-65
2022/01/13 13:46:48;;;;;;;36.55;6.15;;;;;;;;;;5065064;28;20052;-65
2022/01/13 13:49:15;;;;;;;32.63;4.68;;;;;;;;;;5065430;28;20068;-65
2022/01/13 13:51:41;;;;;;;28.92;3.63;;;;;;;;;;5060133;28;20175;-65
2022/01/13 13:54:10;;;;;;;32.97;4.20;;;;;;;;;;5060040;28;20171;-65
2022/01/13 13:56:45;;;;;;;29.88;4.57;;;;;;;;;;5059278;28;20506;-65
2022/01/13 13:59:15;;;;;;;32.00;4.57;;;;;;;;;;5059769;28;20136;-65
2022/01/13 14:01:42;;;;;;;18.27;3.78;;;;;;;;;;5060003;28;20084;-65
2022/01/13 14:04:09;;;;;;;36.05;5.57;;;;;;;;;;5059941;28;20075;-65
2022/01/13 14:06:39;;;;;;;28.13;3.53;;;;;;;;;;5061299;28;20076;-65
2022/01/13 14:09:06;;;;;;;33.72;3.88;;;;;;;;;;5059576;28;20132;-65
2022/01/13 14:11:33;;;;;;;;;;;;;;;;;;5061650;28;20111;-65
2022/01/13 14:14:08;;;;;;;32.13;3.42;;;;;;;;;;5056346;28;19996;-66
2022/01/13 14:16:35;;;;;;;22.52;4.07;;;;;;;;;;5060662;28;20447;-66
2022/01/13 14:19:03;;;;;;;37.03;5.55;;;;;;;;;;5066741;28;20044;-66
2022/01/13 14:21:43;;;;;;;32.38;4.90;;;;;;;;;;5056700;28;20072;-65
2022/01/13 14:24:11;;;;;;;35.45;4.65;;;;;;;;;;5061510;28;20083;-65
2022/01/13 14:26:38;;;;;;;37.08;4.50;;;;;;;;;;5056554;28;20098;-65
2022/01/13 14:29:04;;;;;;;26.55;4.22;;;;;;;;;;5061053;28;20490;-65
2022/01/13 14:31:37;;;;;;;32.00;4.68;;;;;;;;;;5062245;28;20164;-65
2022/01/13 14:34:03;;;;;;;25.58;4.03;;;;;;;;;;5056670;28;20504;-65
2022/01/13 14:36:36;;;;;;;26.13;4.22;;;;;;;;;;5065409;28;20404;-65
2022/01/13 14:39:06;;;;;;;33.97;4.63;;;;;;;;;;5061524;28;20052;-65
2022/01/13 14:41:40;;;;;;;23.13;3.95;;;;;;;;;;5063279;28;20143;-65
2022/01/13 14:44:08;;;;;;;21.45;3.63;;;;;;;;;;5060256;28;20088;-65
2022/01/13 14:46:39;;;;;;;26.02;4.32;;;;;;;;;;5057503;28;20049;-65
2022/01/13 14:49:06;;;;;;;26.17;5.25;;;;;;;;;;5053564;28;20053;-65
2022/01/13 14:51:34;;;;;;;29.75;4.63;;;;;;;;;;5056705;28;20163;-65
2022/01/13 14:54:01;;;;;;;27.92;3.78;;;;;;;;;;5051645;28;20060;-65
2022/01/13 14:56:28;;;;;;;29.92;4.07;;;;;;;;;;5062387;28;20175;-65
2022/01/13 14:58:58;;;;;;;28.58;4.28;;;;;;;;;;5061562;28;20139;-65
2022/01/13 15:01:25;;;;;;;16.80;3.97;;;;;;;;;;5040775;28;20048;-65
2022/01/13 15:03:52;;;;;;;28.83;4.28;;;;;;;;;;5057213;28;20052;-65